KSDM

Brown Field Municipal Airport

San Diego, California, USA
METAR KSDM 190253Z 29005KT 10SM CLR 19/16 A2982 RMK AO2 SLP094 T01890161 53003
Observed Flight Rules
Sep-19 @ 02:53 UTC (25 minutes ago) Visual Flight Rules
Wind Visibility Clouds
290° at 5 knots 10 miles
  • Clear skies
Temperatures Readings
Current 19°C / 66°F
Dewpoint 16°C / 61°F
Humidity 83%
Altimeter 29.82" Hg
Pressure 1009.4 hPa
Elevation 159
METAR KSDM 190253Z 29005KT 10SM CLR 19/16 A2982 RMK AO2 SLP094 T01890161 53003
Observed Flight Rules
Sep-19 @ 02:53 UTC
(25 minutes ago)
VFR
Wind Visibility
290° at 5 knots 10 miles
Clouds
  • Clear skies
Temperature Dewpoint
19°C / 66°F 16°C / 61°F
Humidity Altimeter Pressure
83% 29.82" Hg 1009.4 hPa